ENEV

Harstad / Narvik , Evenes Airport

Evenes, Norway
TAF ENEV 210800Z 2109/2118 24005KT 9999 -RA FEW005 BKN025 TEMPO 2109/2112 RADZ BKN012 TEMPO 2112/2118 30010KT 4000 RADZ BKN008
Issued Valid From Valid To
Jun-21 @ 08:00 UTC
(2 hours ago)
Jun-21 @ 09:00 UTC
(an hour ago)
Jun-21 @ 18:00 UTC
(in 8 hours)
Jun-21 @ 09:00 to Jun-21 @ 18:00
TAF ENEV 210800Z 2109/2118 24005KT 9999 -RA FEW005 BKN025
Wind Visibility Clouds Conditions
240° at 5 knots 10,000+ meters
  • Few at 500' AGL
  • Broken at 2,500' AGL
  • Light Rain
Temporary Jun-21 @ 09:00 to Jun-21 @ 12:00
TEMPO 2109/2112 RADZ BKN012
Clouds Conditions
  • Broken at 1,200' AGL
  • Rain
  • Drizzle
Temporary Jun-21 @ 12:00 to Jun-21 @ 18:00
TEMPO 2112/2118 30010KT 4000 RADZ BKN008
Wind Visibility Clouds Conditions
300° at 10 knots 4,007 meters
  • Broken at 800' AGL
  • Rain
  • Drizzle
TAF ENEV 210800Z 2109/2118 24005KT 9999 -RA FEW005 BKN025 TEMPO 2109/2112 RADZ BKN012 TEMPO 2112/2118 30010KT 4000 RADZ BKN008
Issued Jun-21 @ 08:00 UTC
(2 hours ago)
Valid From Jun-21 @ 09:00 UTC
(an hour ago)
Valid To Jun-21 @ 18:00 UTC
(in 8 hours)
Jun-21 @ 09:00 - Jun-21 @ 18:00
Wind Visibility
240° at 5 knots 10,000+ meters
Clouds
  • Few at 500' AGL
  • Broken at 2,500' AGL
Conditions
  • Light Rain
Temporary Jun-21 @ 09:00 - Jun-21 @ 12:00
Clouds
  • Broken at 1,200' AGL
Conditions
  • Rain
  • Drizzle
Temporary Jun-21 @ 12:00 - Jun-21 @ 18:00
Wind Visibility
300° at 10 knots 4,007 meters
Clouds
  • Broken at 800' AGL
Conditions
  • Rain
  • Drizzle